createdAt,value
2019-03-30T00:00:18.166Z,5.78
2019-03-30T00:01:18.102Z,5.74
2019-03-30T00:02:18.185Z,5.75
2019-03-30T00:03:18.110Z,5.80
2019-03-30T00:04:18.116Z,5.74
2019-03-30T00:05:18.057Z,5.74
2019-03-30T00:06:18.112Z,5.83
2019-03-30T00:07:18.025Z,5.78
2019-03-30T00:08:18.160Z,5.67
2019-03-30T00:09:18.018Z,5.66
2019-03-30T00:10:18.031Z,5.67
2019-03-30T00:11:17.984Z,5.65
2019-03-30T00:13:19.035Z,5.59
2019-03-30T00:14:19.015Z,5.56
2019-03-30T00:15:17.946Z,5.56
2019-03-30T00:17:18.967Z,5.45
2019-03-30T00:19:18.974Z,5.52
2019-03-30T00:20:17.999Z,5.49
2019-03-30T00:21:17.870Z,5.49
2019-03-30T00:22:19.963Z,5.52
2019-03-30T00:23:17.852Z,5.51
2019-03-30T00:24:25.732Z,5.45
2019-03-30T00:25:17.830Z,5.49
2019-03-30T00:27:18.861Z,5.40
2019-03-30T00:29:17.809Z,5.37
2019-03-30T00:30:19.265Z,5.37
2019-03-30T00:31:17.782Z,5.33
2019-03-30T00:32:17.874Z,5.44
2019-03-30T00:33:17.735Z,5.41
2019-03-30T00:34:17.820Z,5.37
2019-03-30T00:35:17.724Z,5.42
2019-03-30T00:36:17.800Z,5.44
2019-03-30T00:37:17.695Z,5.37
2019-03-30T00:38:17.724Z,5.37
2019-03-30T00:39:17.707Z,5.37
2019-03-30T00:40:17.756Z,5.37
2019-03-30T00:41:17.708Z,5.38
2019-03-30T00:42:17.749Z,5.27
2019-03-30T00:43:17.642Z,5.26
2019-03-30T00:44:17.659Z,5.30
2019-03-30T00:45:17.657Z,5.30
2019-03-30T00:46:17.766Z,5.26
2019-03-30T00:47:17.585Z,5.26
2019-03-30T00:49:18.613Z,5.24
2019-03-30T00:50:20.799Z,5.20
2019-03-30T00:51:17.553Z,5.17
2019-03-30T00:52:19.563Z,5.24
2019-03-30T00:53:17.525Z,5.17
2019-03-30T00:54:17.633Z,5.11
2019-03-30T00:55:17.532Z,5.19
2019-03-30T00:57:17.486Z,5.08
2019-03-30T00:58:19.513Z,5.11
2019-03-30T00:59:17.459Z,5.04
2019-03-30T01:00:18.514Z,5.06
2019-03-30T01:01:17.432Z,5.02
2019-03-30T01:02:17.476Z,5.02
2019-03-30T01:03:17.421Z,5.02
2019-03-30T01:05:17.423Z,5.06
2019-03-30T01:07:18.414Z,4.99
2019-03-30T01:09:18.393Z,5.06
2019-03-30T01:10:18.479Z,5.08
2019-03-30T01:11:17.328Z,5.02
2019-03-30T01:12:17.438Z,5.08
2019-03-30T01:13:17.304Z,5.17
2019-03-30T01:14:17.356Z,5.08
2019-03-30T01:15:17.283Z,5.05
2019-03-30T01:16:18.459Z,5.14
2019-03-30T01:17:17.262Z,5.04
2019-03-30T01:18:17.304Z,5.06
2019-03-30T01:19:17.231Z,5.11
2019-03-30T01:20:17.292Z,5.04
2019-03-30T01:21:17.217Z,5.06
2019-03-30T01:22:17.336Z,5.06
2019-03-30T01:23:17.231Z,5.04
2019-03-30T01:24:17.219Z,4.97
2019-03-30T01:25:17.175Z,4.87
2019-03-30T01:26:17.231Z,4.94
2019-03-30T01:27:17.174Z,4.99
2019-03-30T01:28:17.244Z,4.94
2019-03-30T01:29:17.145Z,4.93
2019-03-30T01:30:23.100Z,4.86
2019-03-30T01:31:18.104Z,4.80
2019-03-30T01:32:17.194Z,4.80
2019-03-30T01:33:17.087Z,4.90
2019-03-30T01:34:17.189Z,4.84
2019-03-30T01:35:17.122Z,4.80
2019-03-30T01:36:17.105Z,4.87
2019-03-30T01:37:17.158Z,4.80
2019-03-30T01:38:17.116Z,4.77
2019-03-30T01:39:17.028Z,4.77
2019-03-30T01:40:17.134Z,4.75
2019-03-30T01:41:17.005Z,4.80
2019-03-30T01:42:17.061Z,4.68
2019-03-30T01:43:16.978Z,4.71
2019-03-30T01:44:17.062Z,4.72
2019-03-30T01:45:16.955Z,4.64
2019-03-30T01:46:17.081Z,4.74
2019-03-30T01:47:16.970Z,4.67
2019-03-30T01:48:16.976Z,4.62
2019-03-30T01:49:16.916Z,4.65
2019-03-30T01:50:18.104Z,4.65
2019-03-30T01:51:16.927Z,4.65
2019-03-30T01:52:17.039Z,4.64
2019-03-30T01:53:16.880Z,4.62
2019-03-30T01:54:16.925Z,4.62
2019-03-30T01:55:16.873Z,4.62
2019-03-30T01:56:16.938Z,4.65
2019-03-30T01:57:16.876Z,4.44
2019-03-30T01:58:16.957Z,4.54
2019-03-30T01:59:16.837Z,4.61
2019-03-30T02:00:16.853Z,4.53
2019-03-30T02:01:16.795Z,4.53
2019-03-30T02:02:16.896Z,4.59
2019-03-30T02:03:16.785Z,4.51
2019-03-30T02:04:16.772Z,4.59
2019-03-30T02:05:16.735Z,4.56
2019-03-30T02:06:16.817Z,4.54
2019-03-30T02:07:16.723Z,4.50
2019-03-30T02:08:16.844Z,4.54
2019-03-30T02:09:16.697Z,4.51
2019-03-30T02:10:16.732Z,4.50
2019-03-30T02:11:16.693Z,4.54
2019-03-30T02:12:16.738Z,4.50
2019-03-30T02:13:16.680Z,4.43
2019-03-30T02:14:16.744Z,4.43
2019-03-30T02:15:16.634Z,4.42
2019-03-30T02:16:16.654Z,4.47
2019-03-30T02:17:16.603Z,4.36
2019-03-30T02:18:17.733Z,4.36
2019-03-30T02:19:16.584Z,4.35
2019-03-30T02:20:30.186Z,4.46
2019-03-30T02:21:17.591Z,4.36
2019-03-30T02:22:16.598Z,4.29
2019-03-30T02:23:16.588Z,4.26
2019-03-30T02:24:16.616Z,4.35
2019-03-30T02:25:16.522Z,4.28
2019-03-30T02:26:16.621Z,4.17
2019-03-30T02:27:16.513Z,4.16
2019-03-30T02:28:16.580Z,4.28
2019-03-30T02:29:16.473Z,4.20
2019-03-30T02:30:16.549Z,4.14
2019-03-30T02:31:16.461Z,4.17
2019-03-30T02:32:16.591Z,4.20
2019-03-30T02:33:16.510Z,4.16
2019-03-30T02:34:16.481Z,4.06
2019-03-30T02:35:16.419Z,4.10
2019-03-30T02:36:16.487Z,4.07
2019-03-30T02:37:16.391Z,3.95
2019-03-30T02:38:16.509Z,4.08
2019-03-30T02:39:16.392Z,3.96
2019-03-30T02:40:16.409Z,3.99
2019-03-30T02:41:16.348Z,4.00
2019-03-30T02:42:16.428Z,4.06
2019-03-30T02:43:16.389Z,3.99
2019-03-30T02:44:16.391Z,4.04
2019-03-30T02:45:16.297Z,4.02
2019-03-30T02:46:16.370Z,4.00
2019-03-30T02:47:16.292Z,3.99
2019-03-30T02:49:17.343Z,4.08
2019-03-30T02:50:16.293Z,4.08
2019-03-30T02:51:16.241Z,4.08
2019-03-30T02:52:16.294Z,4.08
2019-03-30T02:53:16.218Z,4.08
2019-03-30T02:54:16.336Z,4.14
2019-03-30T02:55:16.190Z,3.99
2019-03-30T02:56:16.224Z,4.11
2019-03-30T02:57:16.169Z,4.11
2019-03-30T02:58:16.246Z,4.07
2019-03-30T02:59:16.145Z,4.06
2019-03-30T03:00:16.275Z,3.98
2019-03-30T03:01:16.124Z,3.95
2019-03-30T03:02:16.161Z,3.96
2019-03-30T03:03:16.102Z,3.95
2019-03-30T03:04:16.200Z,3.99
2019-03-30T03:05:16.113Z,4.00
2019-03-30T03:06:16.187Z,4.02
2019-03-30T03:07:16.069Z,4.00
2019-03-30T03:08:16.099Z,3.99
2019-03-30T03:09:16.092Z,3.98
2019-03-30T03:10:16.160Z,4.10
2019-03-30T03:11:16.024Z,4.08
2019-03-30T03:12:16.124Z,4.16
2019-03-30T03:13:15.992Z,4.11
2019-03-30T03:14:16.037Z,4.18
2019-03-30T03:15:16.022Z,4.14
2019-03-30T03:16:16.067Z,4.14
2019-03-30T03:17:15.952Z,4.14
2019-03-30T03:18:16.062Z,4.16
2019-03-30T03:19:15.926Z,4.11
2019-03-30T03:20:16.009Z,4.16
2019-03-30T03:21:15.909Z,4.14
2019-03-30T03:22:15.996Z,4.17
2019-03-30T03:23:15.886Z,4.17
2019-03-30T03:24:16.007Z,4.20
2019-03-30T03:25:15.908Z,4.18
2019-03-30T03:26:15.915Z,4.07
2019-03-30T03:27:15.837Z,4.08
2019-03-30T03:28:15.937Z,4.08
2019-03-30T03:29:15.821Z,3.95
2019-03-30T03:30:15.887Z,3.95
2019-03-30T03:31:15.817Z,4.04
2019-03-30T03:32:15.919Z,3.93
2019-03-30T03:33:15.806Z,3.90
2019-03-30T03:34:15.877Z,3.89
2019-03-30T03:35:15.793Z,3.92
2019-03-30T03:36:15.779Z,3.80
2019-03-30T03:37:15.734Z,3.74
2019-03-30T03:38:15.799Z,3.75
2019-03-30T03:39:15.717Z,3.81
2019-03-30T03:40:15.867Z,3.81
2019-03-30T03:41:15.690Z,3.74
2019-03-30T03:42:15.728Z,3.77
2019-03-30T03:43:15.672Z,3.81
2019-03-30T03:44:15.732Z,3.74
2019-03-30T03:45:15.673Z,3.64
2019-03-30T03:46:15.792Z,3.70
2019-03-30T03:47:15.617Z,3.64
2019-03-30T03:48:15.661Z,3.70
2019-03-30T03:49:15.598Z,3.67
2019-03-30T03:50:15.676Z,3.63
2019-03-30T03:51:25.773Z,3.64
2019-03-30T03:52:16.572Z,3.57
2019-03-30T03:53:15.720Z,3.67
2019-03-30T03:54:15.570Z,3.67
2019-03-30T03:55:15.632Z,3.68
2019-03-30T03:56:15.578Z,3.71
2019-03-30T03:57:15.620Z,3.64
2019-03-30T03:58:15.573Z,3.63
2019-03-30T03:59:15.540Z,3.59
2019-03-30T04:00:15.506Z,3.64
2019-03-30T04:01:15.575Z,3.62
2019-03-30T04:02:15.464Z,3.62
2019-03-30T04:03:15.572Z,3.63
2019-03-30T04:04:15.454Z,3.64
2019-03-30T04:05:15.506Z,3.75
2019-03-30T04:06:15.447Z,3.63
2019-03-30T04:07:15.496Z,3.75
2019-03-30T04:08:15.415Z,3.67
2019-03-30T04:09:15.497Z,3.67
2019-03-30T04:10:15.375Z,3.71
2019-03-30T04:11:15.545Z,3.75
2019-03-30T04:12:15.353Z,3.81
2019-03-30T04:13:15.453Z,3.82
2019-03-30T04:14:15.343Z,3.88
2019-03-30T04:15:15.457Z,3.82
2019-03-30T04:16:15.337Z,3.81
2019-03-30T04:17:15.570Z,3.86
2019-03-30T04:18:15.302Z,3.88
2019-03-30T04:19:15.395Z,3.78
2019-03-30T04:20:15.258Z,3.75
2019-03-30T04:21:15.380Z,3.74
2019-03-30T04:22:15.274Z,3.78
2019-03-30T04:23:15.306Z,3.74
2019-03-30T04:24:15.234Z,3.77
2019-03-30T04:25:15.308Z,3.71
2019-03-30T04:26:15.261Z,3.62
2019-03-30T04:27:16.267Z,3.78
2019-03-30T04:28:15.181Z,3.72
2019-03-30T04:29:15.237Z,3.68
2019-03-30T04:30:15.145Z,3.70
2019-03-30T04:31:15.244Z,3.56
2019-03-30T04:32:15.158Z,3.68
2019-03-30T04:33:15.158Z,3.64
2019-03-30T04:34:15.103Z,3.60
2019-03-30T04:35:15.171Z,3.68
2019-03-30T04:36:15.103Z,3.67
2019-03-30T04:37:15.210Z,3.64
2019-03-30T04:38:15.082Z,3.60
2019-03-30T04:39:15.105Z,3.62
2019-03-30T04:40:15.040Z,3.63
2019-03-30T04:41:15.126Z,3.59
2019-03-30T04:42:15.046Z,3.63
2019-03-30T04:43:15.209Z,3.64
2019-03-30T04:44:15.009Z,3.59
2019-03-30T04:45:15.047Z,3.50
2019-03-30T04:46:14.997Z,3.44
2019-03-30T04:47:15.077Z,3.44
2019-03-30T04:48:14.958Z,3.46
2019-03-30T04:49:15.079Z,3.41
2019-03-30T04:50:14.932Z,3.49
2019-03-30T04:51:14.979Z,3.49
2019-03-30T04:52:14.931Z,3.50
2019-03-30T04:53:14.989Z,3.52
2019-03-30T04:54:14.901Z,3.44
2019-03-30T04:55:15.040Z,3.52
2019-03-30T04:56:14.946Z,3.44
2019-03-30T04:57:14.940Z,3.42
2019-03-30T04:58:14.857Z,3.42
2019-03-30T04:59:14.938Z,3.33
2019-03-30T05:00:14.847Z,3.41
2019-03-30T05:01:14.889Z,3.42
2019-03-30T05:02:14.798Z,3.31
2019-03-30T05:03:14.911Z,3.37
2019-03-30T05:04:14.782Z,3.34
2019-03-30T05:05:14.873Z,3.31
2019-03-30T05:06:14.779Z,3.37
2019-03-30T05:07:14.775Z,3.22
2019-03-30T05:08:14.769Z,3.20
2019-03-30T05:09:14.834Z,3.17
2019-03-30T05:10:14.721Z,3.22
2019-03-30T05:11:14.817Z,3.19
2019-03-30T05:12:14.694Z,3.25
2019-03-30T05:13:14.762Z,3.17
2019-03-30T05:14:14.679Z,3.23
2019-03-30T05:15:14.764Z,3.22
2019-03-30T05:16:14.683Z,3.31
2019-03-30T05:17:14.735Z,3.20
2019-03-30T05:18:14.659Z,3.23
2019-03-30T05:19:14.693Z,3.22
2019-03-30T05:20:14.604Z,3.25
2019-03-30T05:21:14.662Z,3.30
2019-03-30T05:22:16.602Z,3.28
2019-03-30T05:23:14.716Z,3.25
2019-03-30T05:24:14.566Z,3.22
2019-03-30T05:25:14.592Z,3.30
2019-03-30T05:26:14.531Z,3.20
2019-03-30T05:27:14.617Z,3.33
2019-03-30T05:28:14.548Z,3.25
2019-03-30T05:29:14.629Z,3.23
2019-03-30T05:30:14.506Z,3.23
2019-03-30T05:31:14.535Z,3.22
2019-03-30T05:32:14.470Z,3.23
2019-03-30T05:33:14.575Z,3.22
2019-03-30T05:34:14.444Z,3.20
2019-03-30T05:35:14.561Z,3.20
2019-03-30T05:36:14.432Z,3.33
2019-03-30T05:37:14.473Z,3.28
2019-03-30T05:38:14.408Z,3.23
2019-03-30T05:39:14.547Z,3.33
2019-03-30T05:40:14.378Z,3.33
2019-03-30T05:41:14.402Z,3.31
2019-03-30T05:42:14.351Z,3.30
2019-03-30T05:43:14.442Z,3.35
2019-03-30T05:44:14.394Z,3.33
2019-03-30T05:45:14.445Z,3.33
2019-03-30T05:46:14.322Z,3.31
2019-03-30T05:47:14.382Z,3.30
2019-03-30T05:48:14.294Z,3.30
2019-03-30T05:49:14.415Z,3.37
2019-03-30T05:50:14.274Z,3.41
2019-03-30T05:51:14.367Z,3.37
2019-03-30T05:52:25.900Z,3.39
2019-03-30T05:53:15.246Z,3.42
2019-03-30T05:54:14.307Z,3.41
2019-03-30T05:55:14.217Z,3.41
2019-03-30T05:56:14.295Z,3.42
2019-03-30T05:57:14.196Z,3.52
2019-03-30T05:58:14.215Z,3.54
2019-03-30T05:59:14.212Z,3.56
2019-03-30T06:00:14.222Z,3.54
2019-03-30T06:01:14.156Z,3.53
2019-03-30T06:02:14.235Z,3.64
2019-03-30T06:03:14.145Z,3.53
2019-03-30T06:04:14.197Z,3.59
2019-03-30T06:05:15.333Z,3.57
2019-03-30T06:06:14.155Z,3.62
2019-03-30T06:07:14.079Z,3.67
2019-03-30T06:08:14.076Z,3.74
2019-03-30T06:09:14.078Z,3.75
2019-03-30T06:10:14.134Z,3.77
2019-03-30T06:11:14.053Z,3.82
2019-03-30T06:12:14.137Z,3.88
2019-03-30T06:13:14.034Z,3.92
2019-03-30T06:14:14.140Z,3.89
2019-03-30T06:15:14.040Z,3.95
2019-03-30T06:16:14.096Z,4.06
2019-03-30T06:17:13.987Z,4.02
2019-03-30T06:18:14.036Z,4.07
2019-03-30T06:19:13.972Z,4.13
2019-03-30T06:20:14.093Z,4.20
2019-03-30T06:21:13.957Z,4.20
2019-03-30T06:22:13.976Z,4.16
2019-03-30T06:23:13.901Z,4.28
2019-03-30T06:24:13.974Z,4.21
2019-03-30T06:25:13.973Z,4.38
2019-03-30T06:26:14.015Z,4.44
2019-03-30T06:27:13.898Z,4.39
2019-03-30T06:28:13.900Z,4.44
2019-03-30T06:29:14.362Z,4.46
2019-03-30T06:30:13.951Z,4.46
2019-03-30T06:31:13.827Z,4.56
2019-03-30T06:32:13.834Z,4.65
2019-03-30T06:33:13.801Z,4.71
2019-03-30T06:34:13.847Z,4.80
2019-03-30T06:35:13.800Z,4.79
2019-03-30T06:36:13.989Z,4.88
2019-03-30T06:37:13.771Z,4.97
2019-03-30T06:38:13.775Z,5.05
2019-03-30T06:39:13.739Z,5.08
2019-03-30T06:40:13.802Z,5.14
2019-03-30T06:41:13.732Z,5.17
2019-03-30T06:42:13.797Z,5.30
2019-03-30T06:43:13.690Z,5.23
2019-03-30T06:44:14.840Z,5.33
2019-03-30T06:45:13.679Z,5.48
2019-03-30T06:46:13.815Z,5.55
2019-03-30T06:47:13.655Z,5.59
2019-03-30T06:48:13.739Z,5.58
2019-03-30T06:49:13.635Z,5.70
2019-03-30T06:50:13.660Z,5.78
2019-03-30T06:51:13.965Z,5.77
2019-03-30T06:52:13.671Z,5.98
2019-03-30T06:53:13.575Z,5.95
2019-03-30T06:54:14.880Z,6.03
2019-03-30T06:55:13.570Z,6.10
2019-03-30T06:56:13.616Z,6.10
2019-03-30T06:57:13.545Z,6.24
2019-03-30T06:58:13.658Z,6.24
2019-03-30T06:59:13.531Z,6.27
2019-03-30T07:00:13.625Z,6.40
2019-03-30T07:01:13.513Z,6.30
2019-03-30T07:02:13.526Z,6.43
2019-03-30T07:03:13.465Z,6.58
2019-03-30T07:04:13.545Z,6.63
2019-03-30T07:05:13.476Z,6.68
2019-03-30T07:06:13.586Z,6.72
2019-03-30T07:07:13.459Z,6.79
2019-03-30T07:08:13.490Z,6.83
2019-03-30T07:09:13.438Z,6.90
2019-03-30T07:10:13.487Z,6.97
2019-03-30T07:11:21.165Z,6.97
2019-03-30T07:12:14.396Z,7.14
2019-03-30T07:13:13.850Z,7.18
2019-03-30T07:14:13.342Z,7.21
2019-03-30T07:15:13.413Z,7.16
2019-03-30T07:16:13.323Z,7.30
2019-03-30T07:17:13.473Z,7.39
2019-03-30T07:18:13.320Z,7.41
2019-03-30T07:19:13.350Z,7.42
2019-03-30T07:20:13.286Z,7.50
2019-03-30T07:21:13.358Z,7.66
2019-03-30T07:22:13.332Z,7.58
2019-03-30T07:24:14.295Z,7.76
2019-03-30T07:25:13.276Z,7.88
2019-03-30T07:26:13.222Z,7.94
2019-03-30T07:27:13.324Z,8.06
2019-03-30T07:28:13.193Z,8.06
2019-03-30T07:29:13.426Z,8.20
2019-03-30T07:30:13.167Z,8.18
2019-03-30T07:31:13.419Z,8.25
2019-03-30T07:32:13.183Z,8.32
2019-03-30T07:33:13.460Z,8.47
2019-03-30T07:34:13.134Z,8.52
2019-03-30T07:35:13.250Z,8.63
2019-03-30T07:36:13.106Z,8.65
2019-03-30T07:37:13.290Z,8.76
2019-03-30T07:38:13.080Z,8.82
2019-03-30T07:39:13.196Z,8.94
2019-03-30T07:40:13.066Z,9.06
2019-03-30T07:41:13.300Z,9.10
2019-03-30T07:42:13.047Z,9.20
2019-03-30T07:43:13.434Z,9.27
2019-03-30T07:44:13.033Z,9.30
2019-03-30T07:45:13.313Z,9.24
2019-03-30T07:46:13.020Z,9.42
2019-03-30T07:47:13.440Z,9.56
2019-03-30T07:48:12.996Z,9.59
2019-03-30T07:50:14.012Z,9.74
2019-03-30T07:52:13.992Z,9.93
2019-03-30T07:53:25.738Z,10.01
2019-03-30T07:54:14.094Z,10.02
2019-03-30T07:55:13.596Z,10.13
2019-03-30T07:56:12.879Z,10.18
2019-03-30T07:57:17.144Z,10.24
2019-03-30T07:58:12.901Z,10.25
2019-03-30T07:59:12.944Z,10.46
2019-03-30T08:00:12.849Z,10.60
2019-03-30T08:02:13.861Z,10.75
2019-03-30T08:04:13.919Z,10.95
2019-03-30T08:06:13.828Z,11.23
2019-03-30T08:08:13.810Z,11.24
2019-03-30T08:09:14.133Z,11.38
2019-03-30T08:10:12.720Z,11.49
2019-03-30T08:12:13.782Z,11.57
2019-03-30T08:14:13.780Z,11.70
2019-03-30T08:16:13.655Z,11.90
2019-03-30T08:17:14.557Z,11.96
2019-03-30T08:18:12.657Z,12.12
2019-03-30T08:19:14.400Z,12.12
2019-03-30T08:20:12.627Z,12.25
2019-03-30T08:23:13.637Z,12.54
2019-03-30T08:24:14.750Z,12.54
2019-03-30T08:25:12.569Z,12.58
2019-03-30T08:26:14.725Z,12.71
2019-03-30T08:27:12.536Z,12.69
2019-03-30T08:28:14.951Z,12.79
2019-03-30T08:29:12.523Z,12.74
2019-03-30T08:30:14.677Z,12.91
2019-03-30T08:31:12.517Z,13.03
2019-03-30T08:32:14.874Z,12.94
2019-03-30T08:33:12.491Z,12.96
2019-03-30T08:34:14.915Z,13.06
2019-03-30T08:35:12.480Z,13.14
2019-03-30T08:36:15.015Z,13.29
2019-03-30T08:37:12.451Z,13.28
2019-03-30T08:38:15.142Z,13.35
2019-03-30T08:39:12.416Z,13.36
2019-03-30T08:40:15.172Z,13.50
2019-03-30T08:41:12.413Z,13.55
2019-03-30T08:43:13.435Z,13.84
2019-03-30T08:45:13.419Z,13.96
2019-03-30T08:47:13.378Z,14.11
2019-03-30T08:49:13.364Z,14.12
2019-03-30T08:51:13.352Z,14.26
2019-03-30T08:53:13.320Z,14.46
2019-03-30T08:55:13.320Z,14.49
2019-03-30T08:57:14.141Z,14.52
2019-03-30T08:59:13.239Z,14.66
2019-03-30T09:00:16.203Z,14.72
2019-03-30T09:01:12.157Z,14.71
2019-03-30T09:02:15.904Z,14.83
2019-03-30T09:03:12.146Z,14.87
2019-03-30T09:04:15.812Z,15.04
2019-03-30T09:05:12.136Z,15.11
2019-03-30T09:06:15.938Z,15.12
2019-03-30T09:07:12.107Z,15.16
2019-03-30T09:09:12.081Z,15.25
2019-03-30T09:10:13.349Z,15.30
2019-03-30T09:11:12.074Z,15.35
2019-03-30T09:14:13.082Z,15.51
2019-03-30T09:16:12.023Z,15.64
2019-03-30T09:18:13.105Z,15.80
2019-03-30T09:19:14.101Z,15.74
2019-03-30T09:20:11.976Z,15.91
2019-03-30T09:21:14.148Z,16.03
2019-03-30T09:22:11.959Z,16.10
2019-03-30T09:23:14.104Z,16.18
2019-03-30T09:24:11.910Z,16.11
2019-03-30T09:25:12.392Z,16.13
2019-03-30T09:26:11.918Z,16.11
2019-03-30T09:27:11.990Z,16.29
2019-03-30T09:28:11.862Z,16.22
2019-03-30T09:29:11.891Z,16.25
2019-03-30T09:30:11.845Z,16.30
2019-03-30T09:31:12.056Z,16.32
2019-03-30T09:32:14.659Z,16.33
2019-03-30T09:33:11.926Z,16.50
2019-03-30T09:34:11.789Z,16.65
2019-03-30T09:35:11.832Z,16.63
2019-03-30T09:36:11.764Z,16.73
2019-03-30T09:37:11.975Z,16.75
2019-03-30T09:38:14.666Z,16.66
2019-03-30T09:39:11.871Z,16.70
2019-03-30T09:40:11.731Z,16.81
2019-03-30T09:41:11.801Z,16.85
2019-03-30T09:42:11.727Z,16.90
2019-03-30T09:43:11.789Z,17.03
2019-03-30T09:44:11.690Z,16.87
2019-03-30T09:45:11.800Z,16.77
2019-03-30T09:46:11.662Z,16.69
2019-03-30T09:47:11.744Z,16.69
2019-03-30T09:48:11.644Z,16.78
2019-03-30T09:49:11.760Z,16.78
2019-03-30T09:50:11.638Z,16.73
2019-03-30T09:51:11.650Z,16.77
2019-03-30T09:52:11.629Z,16.73
2019-03-30T09:53:11.756Z,16.87
2019-03-30T09:54:23.167Z,16.99
2019-03-30T09:55:12.562Z,16.96
2019-03-30T09:56:11.674Z,16.82
2019-03-30T09:57:11.571Z,16.85
2019-03-30T09:58:11.582Z,16.99
2019-03-30T09:59:11.537Z,16.98
2019-03-30T10:00:11.601Z,16.95
2019-03-30T10:01:11.504Z,17.05
2019-03-30T10:02:11.532Z,17.17
2019-03-30T10:03:11.479Z,17.10
2019-03-30T10:04:11.517Z,17.15
2019-03-30T10:05:11.449Z,17.25
2019-03-30T10:06:11.555Z,17.43
2019-03-30T10:07:11.468Z,17.43
2019-03-30T10:08:11.470Z,17.55
2019-03-30T10:09:11.411Z,17.55
2019-03-30T10:11:12.465Z,17.76
2019-03-30T10:12:11.478Z,17.79
2019-03-30T10:13:11.409Z,17.84
2019-03-30T10:14:11.390Z,17.96
2019-03-30T10:15:11.342Z,17.89
2019-03-30T10:16:11.397Z,17.92
2019-03-30T10:17:11.333Z,17.91
2019-03-30T10:18:11.452Z,17.95
2019-03-30T10:19:11.307Z,18.04
2019-03-30T10:20:11.329Z,18.09
2019-03-30T10:21:11.282Z,18.13
2019-03-30T10:22:11.338Z,18.09
2019-03-30T10:23:11.280Z,18.11
2019-03-30T10:24:11.355Z,18.16
2019-03-30T10:25:11.248Z,18.02
2019-03-30T10:26:11.266Z,18.01
2019-03-30T10:27:11.214Z,18.16
2019-03-30T10:28:11.339Z,18.21
2019-03-30T10:29:11.182Z,18.34
2019-03-30T10:30:11.291Z,18.35
2019-03-30T10:31:11.170Z,18.44
2019-03-30T10:32:11.214Z,18.36
2019-03-30T10:33:11.164Z,18.44
2019-03-30T10:34:11.220Z,18.42
2019-03-30T10:35:11.121Z,18.53
2019-03-30T10:36:11.239Z,18.60
2019-03-30T10:37:11.114Z,18.62
2019-03-30T10:38:11.174Z,18.65
2019-03-30T10:39:11.082Z,18.65
2019-03-30T10:40:11.158Z,18.66
2019-03-30T10:41:11.050Z,18.49
2019-03-30T10:42:11.073Z,18.57
2019-03-30T10:43:11.036Z,18.69
2019-03-30T10:44:11.133Z,18.76
2019-03-30T10:45:11.005Z,18.72
2019-03-30T10:46:11.102Z,18.90
2019-03-30T10:47:10.995Z,18.96
2019-03-30T10:48:11.036Z,18.94
2019-03-30T10:49:10.982Z,18.93
2019-03-30T10:50:11.023Z,18.97
2019-03-30T10:51:10.945Z,18.99
2019-03-30T10:52:11.040Z,18.99
2019-03-30T10:53:10.921Z,18.90
2019-03-30T10:54:10.975Z,18.83
2019-03-30T10:55:10.895Z,18.71
2019-03-30T10:56:10.959Z,18.74
2019-03-30T10:57:10.894Z,18.75
2019-03-30T10:58:10.977Z,18.97
2019-03-30T10:59:10.882Z,19.07
2019-03-30T11:01:11.880Z,19.15
2019-03-30T11:02:10.831Z,19.21
2019-03-30T11:03:10.810Z,19.20
2019-03-30T11:04:10.844Z,19.16
2019-03-30T11:05:10.806Z,19.12
2019-03-30T11:06:10.783Z,19.21
2019-03-30T11:07:10.770Z,19.35
2019-03-30T11:08:10.842Z,19.34
2019-03-30T11:09:10.765Z,19.28
2019-03-30T11:10:10.861Z,19.32
2019-03-30T11:11:10.727Z,19.34
2019-03-30T11:12:10.762Z,19.34
2019-03-30T11:13:10.705Z,19.32
2019-03-30T11:14:10.814Z,19.31
2019-03-30T11:15:10.676Z,19.31
2019-03-30T11:16:10.719Z,19.28
2019-03-30T11:17:10.659Z,19.40
2019-03-30T11:18:10.705Z,19.35
2019-03-30T11:19:10.627Z,19.42
2019-03-30T11:20:10.717Z,19.42
2019-03-30T11:21:10.633Z,19.35
2019-03-30T11:22:10.624Z,19.38
2019-03-30T11:23:10.607Z,19.35
2019-03-30T11:24:10.671Z,19.42
2019-03-30T11:25:10.594Z,19.46
2019-03-30T11:26:10.653Z,19.52
2019-03-30T11:27:10.545Z,19.61
2019-03-30T11:28:10.570Z,19.68
2019-03-30T11:29:10.520Z,19.82
2019-03-30T11:30:10.625Z,19.85
2019-03-30T11:31:10.513Z,19.60
2019-03-30T11:32:10.710Z,19.61
2019-03-30T11:33:10.899Z,19.57
2019-03-30T11:34:10.504Z,19.70
2019-03-30T11:35:10.483Z,19.70
2019-03-30T11:36:10.554Z,19.75
2019-03-30T11:37:10.443Z,19.70
2019-03-30T11:38:10.534Z,19.71
2019-03-30T11:39:10.409Z,19.75
2019-03-30T11:40:10.474Z,19.86
2019-03-30T11:41:10.407Z,19.87
2019-03-30T11:42:10.462Z,19.98
2019-03-30T11:43:10.360Z,19.98
2019-03-30T11:44:10.483Z,19.90
2019-03-30T11:45:10.370Z,19.75
2019-03-30T11:46:10.413Z,19.34
2019-03-30T11:47:10.320Z,19.47
2019-03-30T11:48:10.406Z,19.57
2019-03-30T11:49:10.316Z,19.65
2019-03-30T11:50:10.336Z,19.70
2019-03-30T11:51:10.312Z,19.78
2019-03-30T11:52:10.333Z,19.75
2019-03-30T11:53:10.259Z,19.76
2019-03-30T11:54:10.353Z,19.75
2019-03-30T11:55:20.940Z,19.76
2019-03-30T11:56:11.261Z,19.92
2019-03-30T11:57:10.257Z,19.97
2019-03-30T11:58:10.194Z,19.97
2019-03-30T12:00:11.226Z,20.12
2019-03-30T12:01:10.319Z,20.19
2019-03-30T12:02:10.153Z,20.16
2019-03-30T12:03:10.205Z,20.33
2019-03-30T12:04:10.125Z,20.40
2019-03-30T12:05:10.211Z,20.38
2019-03-30T12:06:10.137Z,20.46
2019-03-30T12:07:10.124Z,20.54
2019-03-30T12:08:10.084Z,20.75
2019-03-30T12:09:10.137Z,20.79
2019-03-30T12:10:10.064Z,20.82
2019-03-30T12:11:10.179Z,20.93
2019-03-30T12:12:10.059Z,20.88
2019-03-30T12:13:10.064Z,20.87
2019-03-30T12:14:10.040Z,20.94
2019-03-30T12:15:10.105Z,20.81
2019-03-30T12:16:10.025Z,20.83
2019-03-30T12:17:10.093Z,20.81
2019-03-30T12:18:09.989Z,20.97
2019-03-30T12:19:10.024Z,21.08
2019-03-30T12:20:09.972Z,21.21
2019-03-30T12:21:10.045Z,21.16
2019-03-30T12:22:09.990Z,21.30
2019-03-30T12:23:10.037Z,21.33
2019-03-30T12:24:09.917Z,21.45
2019-03-30T12:25:09.967Z,21.37
2019-03-30T12:26:09.928Z,21.49
2019-03-30T12:27:09.954Z,21.59
2019-03-30T12:28:09.876Z,21.51
2019-03-30T12:29:09.967Z,21.37
2019-03-30T12:30:09.896Z,21.48
2019-03-30T12:31:09.882Z,21.59
2019-03-30T12:32:09.844Z,21.13
2019-03-30T12:33:09.941Z,20.88
2019-03-30T12:34:12.982Z,21.08
2019-03-30T12:35:09.906Z,21.38
2019-03-30T12:36:09.790Z,21.48
2019-03-30T12:37:09.820Z,21.49
2019-03-30T12:38:09.779Z,21.36
2019-03-30T12:39:09.843Z,21.33
2019-03-30T12:40:09.744Z,21.13
2019-03-30T12:41:09.848Z,21.18
2019-03-30T12:42:09.747Z,21.05
2019-03-30T12:43:09.765Z,21.15
2019-03-30T12:44:09.692Z,21.21
2019-03-30T12:45:09.787Z,21.16
2019-03-30T12:46:09.676Z,21.19
2019-03-30T12:47:10.475Z,21.27
2019-03-30T12:48:09.647Z,21.36
2019-03-30T12:49:09.713Z,21.49
2019-03-30T12:50:09.633Z,21.64
2019-03-30T12:51:09.728Z,21.83
2019-03-30T12:52:09.608Z,21.94
2019-03-30T12:53:09.652Z,21.99
2019-03-30T12:54:09.776Z,22.14
2019-03-30T12:55:09.634Z,22.09
2019-03-30T12:56:09.555Z,22.01
2019-03-30T12:57:09.652Z,21.86
2019-03-30T12:58:09.557Z,21.75
2019-03-30T13:00:10.574Z,21.74
2019-03-30T13:01:09.577Z,21.64
2019-03-30T13:02:09.487Z,21.59
2019-03-30T13:03:09.621Z,21.51
2019-03-30T13:04:09.484Z,21.51
2019-03-30T13:05:09.512Z,21.58
2019-03-30T13:06:10.324Z,21.64
2019-03-30T13:07:09.517Z,21.61
2019-03-30T13:08:09.558Z,21.63
2019-03-30T13:09:09.531Z,21.67
2019-03-30T13:10:09.428Z,21.70
2019-03-30T13:11:09.459Z,21.91
2019-03-30T13:12:09.385Z,21.98
2019-03-30T13:13:09.404Z,21.94
2019-03-30T13:14:09.364Z,21.75
2019-03-30T13:15:09.487Z,21.81
2019-03-30T13:16:09.353Z,21.77
2019-03-30T13:17:09.382Z,21.81
2019-03-30T13:18:09.352Z,21.85
2019-03-30T13:19:09.424Z,21.86
2019-03-30T13:20:09.299Z,21.90
2019-03-30T13:21:09.418Z,21.81
2019-03-30T13:22:09.287Z,21.68
2019-03-30T13:23:09.351Z,21.64
2019-03-30T13:24:09.270Z,21.46
2019-03-30T13:25:09.336Z,21.37
2019-03-30T13:26:09.232Z,21.05
2019-03-30T13:27:09.248Z,21.06
2019-03-30T13:28:09.253Z,21.21
2019-03-30T13:29:09.260Z,21.45
2019-03-30T13:30:09.194Z,21.75
2019-03-30T13:31:09.274Z,22.02
2019-03-30T13:32:09.169Z,22.08
2019-03-30T13:33:09.227Z,22.09
2019-03-30T13:34:09.200Z,22.17
2019-03-30T13:35:09.209Z,22.19
2019-03-30T13:36:10.728Z,22.09
2019-03-30T13:37:09.221Z,22.06
2019-03-30T13:38:09.122Z,22.08
2019-03-30T13:39:09.169Z,22.21
2019-03-30T13:40:09.086Z,22.21
2019-03-30T13:41:09.153Z,22.17
2019-03-30T13:42:09.061Z,22.09
2019-03-30T13:43:09.154Z,22.08
2019-03-30T13:44:09.080Z,22.17
2019-03-30T13:45:09.062Z,22.19
2019-03-30T13:46:09.018Z,22.29
2019-03-30T13:47:09.086Z,22.31
2019-03-30T13:48:09.000Z,22.39